sensor_id;sensor_type;location;lat;lon;timestamp;pressure;altitude;pressure_sealevel;temperature;humidity
51067;BME280;37112;45.892;-123.962;2024-03-02T00:00:42;99504.58;;;6.40;95.49
51067;BME280;37112;45.892;-123.962;2024-03-02T00:03:13;99499.28;;;6.38;95.60
51067;BME280;37112;45.892;-123.962;2024-03-02T00:05:24;99493.63;;;6.35;95.47
51067;BME280;37112;45.892;-123.962;2024-03-02T00:07:34;99488.70;;;6.35;95.67
51067;BME280;37112;45.892;-123.962;2024-03-02T00:09:44;99486.63;;;6.35;95.61
51067;BME280;37112;45.892;-123.962;2024-03-02T00:11:54;99476.55;;;6.35;95.81
51067;BME280;37112;45.892;-123.962;2024-03-02T00:14:04;99469.30;;;6.35;95.87
51067;BME280;37112;45.892;-123.962;2024-03-02T00:16:14;99460.39;;;6.34;95.75
51067;BME280;37112;45.892;-123.962;2024-03-02T00:18:30;99449.82;;;6.34;95.70
51067;BME280;37112;45.892;-123.962;2024-03-02T00:20:40;99435.48;;;6.30;95.30
51067;BME280;37112;45.892;-123.962;2024-03-02T00:22:51;99433.29;;;6.24;94.73
51067;BME280;37112;45.892;-123.962;2024-03-02T00:25:01;99427.36;;;6.18;94.42
51067;BME280;37112;45.892;-123.962;2024-03-02T00:27:14;99423.04;;;6.12;94.39
51067;BME280;37112;45.892;-123.962;2024-03-02T00:29:29;99405.29;;;6.08;94.59
51067;BME280;37112;45.892;-123.962;2024-03-02T00:31:41;99384.33;;;6.06;94.51
51067;BME280;37112;45.892;-123.962;2024-03-02T00:33:49;99388.61;;;6.00;94.11
51067;BME280;37112;45.892;-123.962;2024-03-02T00:35:59;99390.36;;;5.92;93.63
51067;BME280;37112;45.892;-123.962;2024-03-02T00:38:10;99387.98;;;5.85;93.84
51067;BME280;37112;45.892;-123.962;2024-03-02T00:40:19;99381.42;;;5.81;93.64
51067;BME280;37112;45.892;-123.962;2024-03-02T00:42:30;99372.49;;;5.78;93.82
51067;BME280;37112;45.892;-123.962;2024-03-02T00:44:41;99365.09;;;5.75;93.92
51067;BME280;37112;45.892;-123.962;2024-03-02T00:46:51;99352.39;;;5.73;93.96
51067;BME280;37112;45.892;-123.962;2024-03-02T00:49:02;99350.02;;;5.69;93.81
51067;BME280;37112;45.892;-123.962;2024-03-02T00:51:12;99344.50;;;5.68;93.99
51067;BME280;37112;45.892;-123.962;2024-03-02T00:53:25;99336.77;;;5.65;93.97
51067;BME280;37112;45.892;-123.962;2024-03-02T00:55:38;99326.14;;;5.58;93.44
51067;BME280;37112;45.892;-123.962;2024-03-02T00:57:52;99317.78;;;5.52;93.32
51067;BME280;37112;45.892;-123.962;2024-03-02T01:00:02;99301.29;;;5.46;93.20
51067;BME280;37112;45.892;-123.962;2024-03-02T01:02:15;99292.27;;;5.42;93.38
51067;BME280;37112;45.892;-123.962;2024-03-02T01:04:25;99281.17;;;5.42;93.74
51067;BME280;37112;45.892;-123.962;2024-03-02T01:06:35;99264.29;;;5.41;93.70
51067;BME280;37112;45.892;-123.962;2024-03-02T01:08:45;99257.61;;;5.39;93.55
51067;BME280;37112;45.892;-123.962;2024-03-02T01:11:00;99246.00;;;5.36;93.59
51067;BME280;37112;45.892;-123.962;2024-03-02T01:13:10;99246.90;;;5.36;93.63
51067;BME280;37112;45.892;-123.962;2024-03-02T01:15:20;99250.35;;;5.34;93.50
51067;BME280;37112;45.892;-123.962;2024-03-02T01:17:30;99254.30;;;5.33;93.61
51067;BME280;37112;45.892;-123.962;2024-03-02T01:19:40;99248.59;;;5.31;93.60
51067;BME280;37112;45.892;-123.962;2024-03-02T01:21:52;99241.58;;;5.28;93.26
51067;BME280;37112;45.892;-123.962;2024-03-02T01:24:02;99236.70;;;5.25;93.28
51067;BME280;37112;45.892;-123.962;2024-03-02T01:26:12;99235.07;;;5.18;92.91
51067;BME280;37112;45.892;-123.962;2024-03-02T01:28:21;99234.58;;;5.13;93.06
51067;BME280;37112;45.892;-123.962;2024-03-02T01:30:31;99230.57;;;5.07;93.06
51067;BME280;37112;45.892;-123.962;2024-03-02T01:32:41;99220.45;;;5.01;93.02
51067;BME280;37112;45.892;-123.962;2024-03-02T01:34:51;99214.59;;;4.96;93.05
51067;BME280;37112;45.892;-123.962;2024-03-02T01:37:01;99209.84;;;4.94;93.36
51067;BME280;37112;45.892;-123.962;2024-03-02T01:39:10;99207.26;;;4.90;93.24
51067;BME280;37112;45.892;-123.962;2024-03-02T01:41:20;99205.45;;;4.86;93.33
51067;BME280;37112;45.892;-123.962;2024-03-02T01:43:30;99200.54;;;4.81;93.17
51067;BME280;37112;45.892;-123.962;2024-03-02T01:45:40;99205.09;;;4.76;93.33
51067;BME280;37112;45.892;-123.962;2024-03-02T01:47:50;99210.80;;;4.72;93.41
51067;BME280;37112;45.892;-123.962;2024-03-02T01:50:00;99219.20;;;4.67;93.59
51067;BME280;37112;45.892;-123.962;2024-03-02T01:52:10;99221.15;;;4.64;93.96
51067;BME280;37112;45.892;-123.962;2024-03-02T01:54:20;99235.39;;;4.62;93.98
51067;BME280;37112;45.892;-123.962;2024-03-02T01:56:31;99235.48;;;4.61;94.25
51067;BME280;37112;45.892;-123.962;2024-03-02T01:58:40;99224.46;;;4.60;94.26
51067;BME280;37112;45.892;-123.962;2024-03-02T02:00:51;99210.59;;;4.60;94.40
51067;BME280;37112;45.892;-123.962;2024-03-02T02:03:01;99200.72;;;4.60;94.45
51067;BME280;37112;45.892;-123.962;2024-03-02T02:05:11;99200.98;;;4.61;94.79
51067;BME280;37112;45.892;-123.962;2024-03-02T02:07:21;99207.33;;;4.63;94.91
51067;BME280;37112;45.892;-123.962;2024-03-02T02:09:31;99202.10;;;4.65;94.95
51067;BME280;37112;45.892;-123.962;2024-03-02T02:11:41;99199.54;;;4.67;94.90
51067;BME280;37112;45.892;-123.962;2024-03-02T02:13:51;99196.59;;;4.69;94.89
51067;BME280;37112;45.892;-123.962;2024-03-02T02:16:08;99189.56;;;4.69;94.64
51067;BME280;37112;45.892;-123.962;2024-03-02T02:18:18;99188.17;;;4.66;94.40
51067;BME280;37112;45.892;-123.962;2024-03-02T02:20:28;99185.46;;;4.67;94.70
51067;BME280;37112;45.892;-123.962;2024-03-02T02:22:37;99184.31;;;4.69;94.55
51067;BME280;37112;45.892;-123.962;2024-03-02T02:24:47;99179.52;;;4.66;94.14
51067;BME280;37112;45.892;-123.962;2024-03-02T02:26:57;99176.34;;;4.64;94.07
51067;BME280;37112;45.892;-123.962;2024-03-02T02:29:07;99173.30;;;4.62;94.01
51067;BME280;37112;45.892;-123.962;2024-03-02T02:31:18;99173.48;;;4.60;93.76
51067;BME280;37112;45.892;-123.962;2024-03-02T02:33:27;99171.73;;;4.57;93.62
51067;BME280;37112;45.892;-123.962;2024-03-02T02:35:37;99167.94;;;4.54;93.62
51067;BME280;37112;45.892;-123.962;2024-03-02T02:37:48;99164.48;;;4.53;93.75
51067;BME280;37112;45.892;-123.962;2024-03-02T02:39:58;99160.66;;;4.52;93.85
51067;BME280;37112;45.892;-123.962;2024-03-02T02:42:08;99160.82;;;4.53;93.81
51067;BME280;37112;45.892;-123.962;2024-03-02T02:44:18;99160.08;;;4.53;94.05
51067;BME280;37112;45.892;-123.962;2024-03-02T02:46:28;99156.71;;;4.53;94.03
51067;BME280;37112;45.892;-123.962;2024-03-02T02:48:37;99147.75;;;4.53;94.02
51067;BME280;37112;45.892;-123.962;2024-03-02T02:50:47;99143.13;;;4.51;93.79
51067;BME280;37112;45.892;-123.962;2024-03-02T02:52:56;99138.39;;;4.48;93.72
51067;BME280;37112;45.892;-123.962;2024-03-02T02:55:08;99132.55;;;4.46;93.66
51067;BME280;37112;45.892;-123.962;2024-03-02T02:57:18;99119.33;;;4.44;93.73
51067;BME280;37112;45.892;-123.962;2024-03-02T02:59:28;99113.11;;;4.43;93.79
51067;BME280;37112;45.892;-123.962;2024-03-02T03:01:38;99091.37;;;4.42;93.77
51067;BME280;37112;45.892;-123.962;2024-03-02T03:03:48;99080.41;;;4.38;93.44
51067;BME280;37112;45.892;-123.962;2024-03-02T03:05:57;99073.79;;;4.32;93.25
51067;BME280;37112;45.892;-123.962;2024-03-02T03:08:10;99075.42;;;4.31;93.88
51067;BME280;37112;45.892;-123.962;2024-03-02T03:10:20;99072.26;;;4.29;93.85
51067;BME280;37112;45.892;-123.962;2024-03-02T03:12:31;99068.75;;;4.29;94.10
51067;BME280;37112;45.892;-123.962;2024-03-02T03:14:42;99060.40;;;4.27;93.99
51067;BME280;37112;45.892;-123.962;2024-03-02T03:16:51;99055.02;;;4.26;94.07
51067;BME280;37112;45.892;-123.962;2024-03-02T03:19:01;99049.23;;;4.26;94.22
51067;BME280;37112;45.892;-123.962;2024-03-02T03:21:11;99041.66;;;4.26;94.57
51067;BME280;37112;45.892;-123.962;2024-03-02T03:23:21;99040.70;;;4.27;94.90
51067;BME280;37112;45.892;-123.962;2024-03-02T03:25:31;99036.05;;;4.29;94.97
51067;BME280;37112;45.892;-123.962;2024-03-02T03:27:41;99032.50;;;4.25;94.59
51067;BME280;37112;45.892;-123.962;2024-03-02T03:29:51;99031.14;;;4.21;94.86
51067;BME280;37112;45.892;-123.962;2024-03-02T03:32:00;99025.39;;;4.20;94.81
51067;BME280;37112;45.892;-123.962;2024-03-02T03:34:10;99022.23;;;4.20;94.98
51067;BME280;37112;45.892;-123.962;2024-03-02T03:36:23;99019.09;;;4.23;95.30
51067;BME280;37112;45.892;-123.962;2024-03-02T03:38:33;99014.83;;;4.26;95.42
51067;BME280;37112;45.892;-123.962;2024-03-02T03:40:42;99011.39;;;4.27;95.47
51067;BME280;37112;45.892;-123.962;2024-03-02T03:42:52;99015.66;;;4.29;95.58
51067;BME280;37112;45.892;-123.962;2024-03-02T03:45:05;99016.17;;;4.29;95.70
51067;BME280;37112;45.892;-123.962;2024-03-02T03:47:14;99012.14;;;4.32;95.83
51067;BME280;37112;45.892;-123.962;2024-03-02T03:49:24;99009.48;;;4.34;96.04
51067;BME280;37112;45.892;-123.962;2024-03-02T03:51:33;99000.02;;;4.36;96.19
51067;BME280;37112;45.892;-123.962;2024-03-02T03:53:43;98998.60;;;4.39;96.24
51067;BME280;37112;45.892;-123.962;2024-03-02T03:55:53;99005.33;;;4.41;96.25
51067;BME280;37112;45.892;-123.962;2024-03-02T03:58:04;99007.03;;;4.39;96.06
51067;BME280;37112;45.892;-123.962;2024-03-02T04:00:15;99012.58;;;4.38;95.86
51067;BME280;37112;45.892;-123.962;2024-03-02T04:02:25;99008.02;;;4.35;95.63
51067;BME280;37112;45.892;-123.962;2024-03-02T04:04:35;99009.82;;;4.32;95.53
51067;BME280;37112;45.892;-123.962;2024-03-02T04:06:45;99017.95;;;4.31;95.72
51067;BME280;37112;45.892;-123.962;2024-03-02T04:08:54;99014.92;;;4.32;95.81
51067;BME280;37112;45.892;-123.962;2024-03-02T04:11:04;99018.69;;;4.31;95.73
51067;BME280;37112;45.892;-123.962;2024-03-02T04:13:14;99022.55;;;4.31;95.88
51067;BME280;37112;45.892;-123.962;2024-03-02T04:15:24;99015.36;;;4.31;95.78
51067;BME280;37112;45.892;-123.962;2024-03-02T04:17:35;99011.84;;;4.29;95.67
51067;BME280;37112;45.892;-123.962;2024-03-02T04:19:45;99013.09;;;4.28;96.10
51067;BME280;37112;45.892;-123.962;2024-03-02T04:21:54;99012.73;;;4.28;96.19
51067;BME280;37112;45.892;-123.962;2024-03-02T04:24:08;99014.95;;;4.29;96.33
51067;BME280;37112;45.892;-123.962;2024-03-02T04:26:18;99009.06;;;4.28;96.28
51067;BME280;37112;45.892;-123.962;2024-03-02T04:28:29;99016.92;;;4.26;96.26
51067;BME280;37112;45.892;-123.962;2024-03-02T04:30:40;99025.60;;;4.25;96.54
51067;BME280;37112;45.892;-123.962;2024-03-02T04:32:50;99025.16;;;4.26;96.71
51067;BME280;37112;45.892;-123.962;2024-03-02T04:35:00;99024.41;;;4.22;96.49
51067;BME280;37112;45.892;-123.962;2024-03-02T04:37:11;99024.98;;;4.13;96.19
51067;BME280;37112;45.892;-123.962;2024-03-02T04:39:22;99021.98;;;4.03;96.02
51067;BME280;37112;45.892;-123.962;2024-03-02T04:41:33;99030.26;;;3.93;95.80
51067;BME280;37112;45.892;-123.962;2024-03-02T04:43:43;99032.15;;;3.85;96.05
51067;BME280;37112;45.892;-123.962;2024-03-02T04:45:53;99032.98;;;3.78;95.75
51067;BME280;37112;45.892;-123.962;2024-03-02T04:48:03;99030.94;;;3.72;95.63
51067;BME280;37112;45.892;-123.962;2024-03-02T04:50:14;99028.98;;;3.67;95.71
51067;BME280;37112;45.892;-123.962;2024-03-02T04:52:24;99028.80;;;3.64;96.19
51067;BME280;37112;45.892;-123.962;2024-03-02T04:54:34;99026.54;;;3.61;96.54
51067;BME280;37112;45.892;-123.962;2024-03-02T04:57:05;99024.17;;;3.57;96.17
51067;BME280;37112;45.892;-123.962;2024-03-02T04:59:15;99030.21;;;3.53;96.37
51067;BME280;37112;45.892;-123.962;2024-03-02T05:01:26;99037.34;;;3.52;96.88
51067;BME280;37112;45.892;-123.962;2024-03-02T05:03:36;99031.83;;;3.50;96.99
51067;BME280;37112;45.892;-123.962;2024-03-02T05:05:46;99035.68;;;3.48;97.06
51067;BME280;37112;45.892;-123.962;2024-03-02T05:07:56;99036.43;;;3.45;96.99
51067;BME280;37112;45.892;-123.962;2024-03-02T05:10:07;99037.73;;;3.43;97.28
51067;BME280;37112;45.892;-123.962;2024-03-02T05:12:21;99037.84;;;3.41;97.25
51067;BME280;37112;45.892;-123.962;2024-03-02T05:14:55;99044.76;;;3.38;97.02
51067;BME280;37112;45.892;-123.962;2024-03-02T05:17:05;99043.07;;;3.37;97.16
51067;BME280;37112;45.892;-123.962;2024-03-02T05:19:15;99048.01;;;3.33;96.98
51067;BME280;37112;45.892;-123.962;2024-03-02T05:21:25;99053.33;;;3.30;96.98
51067;BME280;37112;45.892;-123.962;2024-03-02T05:23:37;99060.11;;;3.28;96.88
51067;BME280;37112;45.892;-123.962;2024-03-02T05:25:48;99056.67;;;3.24;96.55
51067;BME280;37112;45.892;-123.962;2024-03-02T05:27:59;99051.48;;;3.20;96.51
51067;BME280;37112;45.892;-123.962;2024-03-02T05:30:13;99059.75;;;3.17;96.50
51067;BME280;37112;45.892;-123.962;2024-03-02T05:32:23;99062.84;;;3.13;96.27
51067;BME280;37112;45.892;-123.962;2024-03-02T05:34:33;99065.98;;;3.10;96.28
51067;BME280;37112;45.892;-123.962;2024-03-02T05:36:43;99060.88;;;3.08;96.32
51067;BME280;37112;45.892;-123.962;2024-03-02T05:38:54;99064.05;;;3.04;96.31
51067;BME280;37112;45.892;-123.962;2024-03-02T05:41:04;99063.45;;;3.03;96.53
51067;BME280;37112;45.892;-123.962;2024-03-02T05:43:14;99062.61;;;3.02;96.49
51067;BME280;37112;45.892;-123.962;2024-03-02T05:45:24;99062.31;;;3.02;96.57
51067;BME280;37112;45.892;-123.962;2024-03-02T05:47:34;99055.98;;;3.02;96.80
51067;BME280;37112;45.892;-123.962;2024-03-02T05:49:44;99053.72;;;3.02;96.96
51067;BME280;37112;45.892;-123.962;2024-03-02T05:51:54;99052.52;;;3.01;97.10
51067;BME280;37112;45.892;-123.962;2024-03-02T05:54:05;99053.05;;;3.04;97.34
51067;BME280;37112;45.892;-123.962;2024-03-02T05:56:15;99046.38;;;3.07;97.58
51067;BME280;37112;45.892;-123.962;2024-03-02T05:58:25;99042.82;;;3.07;97.58
51067;BME280;37112;45.892;-123.962;2024-03-02T06:00:45;99046.54;;;3.10;97.64
51067;BME280;37112;45.892;-123.962;2024-03-02T06:02:55;99048.05;;;3.11;97.84
51067;BME280;37112;45.892;-123.962;2024-03-02T06:05:06;99047.58;;;3.14;97.78
51067;BME280;37112;45.892;-123.962;2024-03-02T06:07:16;99051.61;;;3.16;97.95
51067;BME280;37112;45.892;-123.962;2024-03-02T06:09:26;99048.44;;;3.19;98.00
51067;BME280;37112;45.892;-123.962;2024-03-02T06:11:36;99048.77;;;3.19;98.44
51067;BME280;37112;45.892;-123.962;2024-03-02T06:13:46;99050.80;;;3.20;98.23
51067;BME280;37112;45.892;-123.962;2024-03-02T06:15:56;99049.30;;;3.22;98.59
51067;BME280;37112;45.892;-123.962;2024-03-02T06:18:07;99051.25;;;3.24;98.68
51067;BME280;37112;45.892;-123.962;2024-03-02T06:20:17;99046.38;;;3.26;98.82
51067;BME280;37112;45.892;-123.962;2024-03-02T06:22:27;99043.63;;;3.28;98.94
51067;BME280;37112;45.892;-123.962;2024-03-02T06:24:37;99040.95;;;3.31;99.22
51067;BME280;37112;45.892;-123.962;2024-03-02T06:26:50;99039.19;;;3.34;99.39
51067;BME280;37112;45.892;-123.962;2024-03-02T06:29:00;99038.41;;;3.38;99.55
51067;BME280;37112;45.892;-123.962;2024-03-02T06:31:11;99041.33;;;3.42;99.66
51067;BME280;37112;45.892;-123.962;2024-03-02T06:33:21;99037.60;;;3.45;99.96
51067;BME280;37112;45.892;-123.962;2024-03-02T06:35:30;99033.90;;;3.48;99.93
51067;BME280;37112;45.892;-123.962;2024-03-02T06:37:41;99030.52;;;3.52;99.98
51067;BME280;37112;45.892;-123.962;2024-03-02T06:39:51;99031.67;;;3.55;100.00
51067;BME280;37112;45.892;-123.962;2024-03-02T06:42:01;99033.96;;;3.58;100.00
51067;BME280;37112;45.892;-123.962;2024-03-02T06:44:12;99031.25;;;3.62;100.00
51067;BME280;37112;45.892;-123.962;2024-03-02T06:46:22;99035.05;;;3.65;100.00
51067;BME280;37112;45.892;-123.962;2024-03-02T06:48:31;99030.88;;;3.68;100.00
51067;BME280;37112;45.892;-123.962;2024-03-02T06:50:42;99027.19;;;3.70;100.00
51067;BME280;37112;45.892;-123.962;2024-03-02T06:52:52;99033.38;;;3.72;100.00
51067;BME280;37112;45.892;-123.962;2024-03-02T06:55:04;99042.40;;;3.74;100.00
51067;BME280;37112;45.892;-123.962;2024-03-02T06:57:14;99044.77;;;3.76;100.00
51067;BME280;37112;45.892;-123.962;2024-03-02T06:59:25;99040.96;;;3.77;100.00
51067;BME280;37112;45.892;-123.962;2024-03-02T07:01:39;99040.73;;;3.78;100.00
51067;BME280;37112;45.892;-123.962;2024-03-02T07:03:49;99039.55;;;3.77;100.00
51067;BME280;37112;45.892;-123.962;2024-03-02T07:05:59;99040.41;;;3.77;100.00
51067;BME280;37112;45.892;-123.962;2024-03-02T07:08:09;99048.11;;;3.78;100.00
51067;BME280;37112;45.892;-123.962;2024-03-02T07:10:19;99048.83;;;3.77;100.00
51067;BME280;37112;45.892;-123.962;2024-03-02T07:12:29;99052.80;;;3.78;100.00
51067;BME280;37112;45.892;-123.962;2024-03-02T07:14:39;99050.55;;;3.78;100.00
51067;BME280;37112;45.892;-123.962;2024-03-02T07:17:21;99045.95;;;3.78;100.00
51067;BME280;37112;45.892;-123.962;2024-03-02T07:19:31;99044.76;;;3.78;100.00
51067;BME280;37112;45.892;-123.962;2024-03-02T07:21:41;99037.56;;;3.78;100.00
51067;BME280;37112;45.892;-123.962;2024-03-02T07:23:51;99034.16;;;3.76;100.00
51067;BME280;37112;45.892;-123.962;2024-03-02T07:26:01;99027.14;;;3.76;100.00
51067;BME280;37112;45.892;-123.962;2024-03-02T07:28:14;99022.77;;;3.76;100.00
51067;BME280;37112;45.892;-123.962;2024-03-02T07:30:24;99019.65;;;3.76;99.99
51067;BME280;37112;45.892;-123.962;2024-03-02T07:32:35;99021.86;;;3.74;99.97
51067;BME280;37112;45.892;-123.962;2024-03-02T07:34:45;99022.77;;;3.73;99.86
51067;BME280;37112;45.892;-123.962;2024-03-02T07:36:55;99021.64;;;3.72;99.95
51067;BME280;37112;45.892;-123.962;2024-03-02T07:39:05;99022.60;;;3.71;99.81
51067;BME280;37112;45.892;-123.962;2024-03-02T07:41:15;99021.97;;;3.70;99.69
51067;BME280;37112;45.892;-123.962;2024-03-02T09:34:41;99079.98;;;4.41;100.00
51067;BME280;37112;45.892;-123.962;2024-03-02T09:36:53;99082.66;;;4.49;100.00
51067;BME280;37112;45.892;-123.962;2024-03-02T09:39:03;99090.98;;;4.53;100.00
51067;BME280;37112;45.892;-123.962;2024-03-02T09:41:13;99087.74;;;4.59;100.00
51067;BME280;37112;45.892;-123.962;2024-03-02T09:43:23;99091.79;;;4.67;100.00
51067;BME280;37112;45.892;-123.962;2024-03-02T09:45:33;99097.48;;;4.73;100.00
51067;BME280;37112;45.892;-123.962;2024-03-02T09:47:43;99103.61;;;4.79;100.00
51067;BME280;37112;45.892;-123.962;2024-03-02T09:49:54;99102.99;;;4.85;100.00
51067;BME280;37112;45.892;-123.962;2024-03-02T09:52:05;99101.77;;;4.90;100.00
51067;BME280;37112;45.892;-123.962;2024-03-02T09:54:15;99102.95;;;4.88;100.00
51067;BME280;37112;45.892;-123.962;2024-03-02T09:56:29;99113.98;;;4.84;100.00
51067;BME280;37112;45.892;-123.962;2024-03-02T09:58:40;99118.60;;;4.81;100.00
51067;BME280;37112;45.892;-123.962;2024-03-02T10:00:50;99115.74;;;4.81;100.00
51067;BME280;37112;45.892;-123.962;2024-03-02T10:03:00;99123.70;;;4.81;100.00
51067;BME280;37112;45.892;-123.962;2024-03-02T10:05:11;99129.65;;;4.81;100.00
51067;BME280;37112;45.892;-123.962;2024-03-02T10:07:22;99132.80;;;4.79;100.00
51067;BME280;37112;45.892;-123.962;2024-03-02T10:09:32;99138.86;;;4.75;100.00
51067;BME280;37112;45.892;-123.962;2024-03-02T10:11:42;99145.85;;;4.76;100.00
51067;BME280;37112;45.892;-123.962;2024-03-02T10:13:52;99160.89;;;4.79;100.00
51067;BME280;37112;45.892;-123.962;2024-03-02T10:16:15;99167.64;;;4.81;100.00
51067;BME280;37112;45.892;-123.962;2024-03-02T10:18:28;99176.16;;;4.77;100.00
51067;BME280;37112;45.892;-123.962;2024-03-02T10:20:40;99175.06;;;4.70;100.00
51067;BME280;37112;45.892;-123.962;2024-03-02T10:22:50;99176.30;;;4.67;100.00
51067;BME280;37112;45.892;-123.962;2024-03-02T10:24:59;99175.33;;;4.63;100.00
51067;BME280;37112;45.892;-123.962;2024-03-02T10:27:23;99181.52;;;4.58;100.00
51067;BME280;37112;45.892;-123.962;2024-03-02T10:29:33;99182.78;;;4.52;100.00
51067;BME280;37112;45.892;-123.962;2024-03-02T10:31:43;99185.94;;;4.52;100.00
51067;BME280;37112;45.892;-123.962;2024-03-02T10:33:53;99184.27;;;4.54;100.00
51067;BME280;37112;45.892;-123.962;2024-03-02T10:36:04;99184.92;;;4.52;100.00
51067;BME280;37112;45.892;-123.962;2024-03-02T10:38:15;99189.23;;;4.50;100.00
51067;BME280;37112;45.892;-123.962;2024-03-02T10:40:26;99193.04;;;4.49;100.00
51067;BME280;37112;45.892;-123.962;2024-03-02T10:42:36;99194.88;;;4.50;100.00
51067;BME280;37112;45.892;-123.962;2024-03-02T10:44:47;99195.58;;;4.53;100.00
51067;BME280;37112;45.892;-123.962;2024-03-02T10:46:57;99195.23;;;4.53;100.00
51067;BME280;37112;45.892;-123.962;2024-03-02T10:49:09;99203.26;;;4.51;100.00
51067;BME280;37112;45.892;-123.962;2024-03-02T10:51:19;99209.77;;;4.48;100.00
51067;BME280;37112;45.892;-123.962;2024-03-02T10:53:29;99213.69;;;4.47;100.00
51067;BME280;37112;45.892;-123.962;2024-03-02T10:55:39;99221.63;;;4.47;100.00
51067;BME280;37112;45.892;-123.962;2024-03-02T10:57:52;99226.07;;;4.46;100.00
51067;BME280;37112;45.892;-123.962;2024-03-02T11:00:04;99235.24;;;4.45;99.79
51067;BME280;37112;45.892;-123.962;2024-03-02T11:02:23;99236.95;;;4.44;99.68
51067;BME280;37112;45.892;-123.962;2024-03-02T11:04:33;99231.78;;;4.45;99.63
51067;BME280;37112;45.892;-123.962;2024-03-02T11:06:48;99235.22;;;4.46;99.54
51067;BME280;37112;45.892;-123.962;2024-03-02T11:09:00;99236.54;;;4.47;99.50
51067;BME280;37112;45.892;-123.962;2024-03-02T11:11:18;99240.94;;;4.50;99.76
51067;BME280;37112;45.892;-123.962;2024-03-02T11:13:33;99245.00;;;4.50;99.27
51067;BME280;37112;45.892;-123.962;2024-03-02T11:15:46;99247.37;;;4.48;97.79
51067;BME280;37112;45.892;-123.962;2024-03-02T11:17:57;99249.48;;;4.48;97.72
51067;BME280;37112;45.892;-123.962;2024-03-02T11:20:09;99248.13;;;4.50;97.95
51067;BME280;37112;45.892;-123.962;2024-03-02T11:22:21;99250.38;;;4.51;98.00
51067;BME280;37112;45.892;-123.962;2024-03-02T11:24:34;99251.94;;;4.51;97.79
51067;BME280;37112;45.892;-123.962;2024-03-02T11:26:45;99251.85;;;4.52;97.84
51067;BME280;37112;45.892;-123.962;2024-03-02T11:28:55;99255.63;;;4.54;97.61
51067;BME280;37112;45.892;-123.962;2024-03-02T11:31:06;99252.90;;;4.55;97.42
51067;BME280;37112;45.892;-123.962;2024-03-02T11:33:16;99252.86;;;4.56;97.31
51067;BME280;37112;45.892;-123.962;2024-03-02T11:35:32;99252.86;;;4.56;96.95
51067;BME280;37112;45.892;-123.962;2024-03-02T11:37:43;99252.80;;;4.56;96.83
51067;BME280;37112;45.892;-123.962;2024-03-02T11:39:53;99256.48;;;4.54;95.56
51067;BME280;37112;45.892;-123.962;2024-03-02T11:42:05;99260.31;;;4.46;95.05
51067;BME280;37112;45.892;-123.962;2024-03-02T11:44:15;99261.94;;;4.38;95.06
51067;BME280;37112;45.892;-123.962;2024-03-02T11:46:27;99257.41;;;4.32;94.69
51067;BME280;37112;45.892;-123.962;2024-03-02T11:48:39;99262.11;;;4.27;94.59
51067;BME280;37112;45.892;-123.962;2024-03-02T11:50:51;99260.11;;;4.29;95.33
51067;BME280;37112;45.892;-123.962;2024-03-02T11:53:02;99250.60;;;4.29;95.08
51067;BME280;37112;45.892;-123.962;2024-03-02T11:55:12;99251.63;;;4.26;94.84
51067;BME280;37112;45.892;-123.962;2024-03-02T11:57:23;99251.04;;;4.27;95.26
51067;BME280;37112;45.892;-123.962;2024-03-02T11:59:33;99252.70;;;4.29;95.36
51067;BME280;37112;45.892;-123.962;2024-03-02T12:01:43;99258.35;;;4.31;95.54
51067;BME280;37112;45.892;-123.962;2024-03-02T12:03:54;99262.04;;;4.33;95.60
51067;BME280;37112;45.892;-123.962;2024-03-02T12:06:05;99265.59;;;4.36;95.52
51067;BME280;37112;45.892;-123.962;2024-03-02T12:08:15;99266.45;;;4.39;95.40
51067;BME280;37112;45.892;-123.962;2024-03-02T12:10:26;99265.16;;;4.42;95.47
51067;BME280;37112;45.892;-123.962;2024-03-02T12:12:36;99265.07;;;4.49;95.62
51067;BME280;37112;45.892;-123.962;2024-03-02T12:14:51;99259.10;;;4.52;95.05
51067;BME280;37112;45.892;-123.962;2024-03-02T12:17:03;99260.17;;;4.57;94.79
51067;BME280;37112;45.892;-123.962;2024-03-02T12:19:13;99256.40;;;4.61;93.99
51067;BME280;37112;45.892;-123.962;2024-03-02T12:21:25;99258.95;;;4.64;93.64
51067;BME280;37112;45.892;-123.962;2024-03-02T12:23:36;99259.96;;;4.68;92.77
51067;BME280;37112;45.892;-123.962;2024-03-02T12:25:46;99266.38;;;4.72;92.11
51067;BME280;37112;45.892;-123.962;2024-03-02T12:27:59;99269.92;;;4.77;91.28
51067;BME280;37112;45.892;-123.962;2024-03-02T12:30:12;99286.63;;;4.82;91.67
51067;BME280;37112;45.892;-123.962;2024-03-02T12:32:21;99297.77;;;4.81;90.73
51067;BME280;37112;45.892;-123.962;2024-03-02T12:34:31;99298.46;;;4.76;90.50
51067;BME280;37112;45.892;-123.962;2024-03-02T12:36:41;99293.89;;;4.73;91.12
51067;BME280;37112;45.892;-123.962;2024-03-02T12:38:54;99292.94;;;4.71;91.15
51067;BME280;37112;45.892;-123.962;2024-03-02T12:41:04;99290.59;;;4.67;90.63
51067;BME280;37112;45.892;-123.962;2024-03-02T12:43:14;99291.08;;;4.65;90.55
51067;BME280;37112;45.892;-123.962;2024-03-02T12:45:24;99296.55;;;4.65;90.83
51067;BME280;37112;45.892;-123.962;2024-03-02T12:47:34;99293.11;;;4.66;90.82
51067;BME280;37112;45.892;-123.962;2024-03-02T12:49:45;99296.70;;;4.68;89.64
51067;BME280;37112;45.892;-123.962;2024-03-02T12:51:55;99297.35;;;4.74;90.37
51067;BME280;37112;45.892;-123.962;2024-03-02T12:54:06;99302.48;;;4.79;89.27
51067;BME280;37112;45.892;-123.962;2024-03-02T12:56:16;99304.15;;;4.83;89.11
51067;BME280;37112;45.892;-123.962;2024-03-02T12:58:26;99304.48;;;4.86;89.22
51067;BME280;37112;45.892;-123.962;2024-03-02T13:00:37;99312.41;;;4.88;88.85
51067;BME280;37112;45.892;-123.962;2024-03-02T13:02:48;99314.72;;;4.93;89.12
51067;BME280;37112;45.892;-123.962;2024-03-02T13:05:03;99317.18;;;4.98;89.70